Time;durP1;ratioP1;P1;durP2;ratioP2;P2;SDS_P1;SDS_P2;PMS_P1;PMS_P2;Temp;Humidity;BMP_temperature;BMP_pressure;BME280_temperature;BME280_humidity;BME280_pressure;Samples;Min_cycle;Max_cycle;Signal;HPM_P1;HPM_P2
2023/04/12 00:01:03;;;;;;;2.40;1.48;;;;;;;20.65;36.07;100608.69;5109889;27;20501;-68
2023/04/12 00:03:32;;;;;;;2.70;1.88;;;;;;;20.65;36.08;100595.44;5106473;27;20446;-66
2023/04/12 00:06:02;;;;;;;2.65;1.58;;;;;;;20.65;36.11;100590.16;5106008;27;20039;-67
2023/04/12 00:08:32;;;;;;;2.65;1.25;;;;;;;20.57;36.16;100587.63;5105704;27;20048;-66
2023/04/12 00:11:02;;;;;;;2.03;1.38;;;;;;;20.63;36.08;100571.78;5101658;27;20053;-66
2023/04/12 00:13:28;;;;;;;;;;;;;;;20.58;36.21;100568.09;5102423;27;20134;-69
2023/04/12 00:15:54;;;;;;;3.58;1.42;;;;;;;20.54;36.14;100562.38;5107320;27;20350;-67
2023/04/12 00:18:24;;;;;;;1.88;1.45;;;;;;;20.60;36.21;100552.84;5106264;28;20028;-67
2023/04/12 00:20:54;;;;;;;2.63;1.42;;;;;;;20.55;36.07;100553.44;5110593;27;20599;-67
2023/04/12 00:23:20;;;;;;;3.08;1.45;;;;;;;20.50;36.38;100547.91;5103025;28;20031;-67
2023/04/12 00:25:45;;;;;;;2.53;1.52;;;;;;;20.56;36.17;100541.84;5105357;27;20036;-66
2023/04/12 00:28:11;;;;;;;2.80;1.30;;;;;;;20.51;36.08;100537.13;5104614;27;20091;-66
2023/04/12 00:30:37;;;;;;;2.42;1.48;;;;;;;20.59;35.97;100536.16;5103808;28;20851;-67
2023/04/12 00:33:02;;;;;;;2.08;1.38;;;;;;;20.48;36.10;100515.53;5104049;28;20062;-67
2023/04/12 00:35:28;;;;;;;1.95;1.40;;;;;;;20.49;36.18;100525.09;5104706;28;20484;-67
2023/04/12 00:37:53;;;;;;;1.58;1.27;;;;;;;20.51;36.00;100526.53;5101559;28;20040;-68
2023/04/12 00:40:19;;;;;;;2.20;1.38;;;;;;;20.48;36.15;100523.47;5104194;28;20035;-66
2023/04/12 00:42:45;;;;;;;2.72;1.40;;;;;;;20.43;36.37;100502.03;5103012;28;20166;-68
2023/04/12 00:45:11;;;;;;;3.90;1.67;;;;;;;20.47;36.11;100508.63;5107759;28;20877;-67
2023/04/12 00:47:36;;;;;;;2.85;1.35;;;;;;;20.34;36.51;100509.28;5091827;28;20031;-67
2023/04/12 00:50:05;;;;;;;1.48;1.30;;;;;;;20.46;36.21;100491.06;5102198;28;21049;-67
2023/04/12 00:52:33;;;;;;;2.88;1.50;;;;;;;20.37;36.29;100477.16;5086528;28;21768;-67
2023/04/12 00:55:09;;;;;;;2.72;1.58;;;;;;;20.38;36.24;100483.25;5109276;28;20154;-67
2023/04/12 00:57:38;;;;;;;2.38;1.40;;;;;;;20.36;36.32;100475.53;5091148;28;20062;-67
2023/04/12 01:00:11;;;;;;;3.28;1.48;;;;;;;20.41;36.28;100480.25;5090839;28;20032;-68
2023/04/12 01:02:37;;;;;;;1.98;1.63;;;;;;;20.42;36.15;100472.13;5106442;28;20031;-66
2023/04/12 01:05:05;;;;;;;2.17;1.17;;;;;;;20.45;36.20;100463.00;5108267;28;20033;-68
2023/04/12 01:07:46;;;;;;;2.20;1.38;;;;;;;20.40;36.24;100463.56;5099887;28;20043;-68
2023/04/12 01:10:35;;;;;;;2.67;1.20;;;;;;;20.37;36.38;100448.06;5103374;28;20039;-67
2023/04/12 01:13:13;;;;;;;1.37;1.23;;;;;;;20.35;36.46;100450.09;5106755;28;20127;-67
2023/04/12 01:15:50;;;;;;;3.13;1.38;;;;;;;20.38;36.37;100456.81;5095575;28;20043;-67
2023/04/12 01:18:22;;;;;;;2.22;1.30;;;;;;;20.38;36.29;100443.59;5089893;27;20035;-67
2023/04/12 01:20:57;;;;;;;1.70;1.38;;;;;;;20.25;36.53;100439.03;5109898;27;20036;-67
2023/04/12 01:23:57;;;;;;;2.25;1.80;;;;;;;20.28;36.45;100433.34;5088264;27;20043;-67
2023/04/12 01:26:44;;;;;;;4.35;1.92;;;;;;;20.31;36.43;100425.06;5104981;27;20047;-67
2023/04/12 01:29:19;;;;;;;2.95;1.60;;;;;;;20.33;36.40;100427.50;5107824;27;20147;-67
2023/04/12 01:32:00;;;;;;;1.92;1.30;;;;;;;20.31;36.38;100414.47;5096331;27;20131;-66
2023/04/12 01:34:30;;;;;;;3.00;1.10;;;;;;;20.20;36.43;100399.13;5088476;27;20205;-67
2023/04/12 01:37:00;;;;;;;2.63;1.48;;;;;;;20.27;36.53;100405.25;5103904;27;20126;-67
2023/04/12 01:39:26;;;;;;;3.97;1.25;;;;;;;20.25;36.44;100390.63;5104484;27;20031;-67
2023/04/12 01:41:51;;;;;;;2.38;1.02;;;;;;;20.22;36.55;100390.00;5107426;27;20031;-67
2023/04/12 01:44:18;;;;;;;2.25;1.40;;;;;;;20.27;36.40;100378.00;5105201;27;20523;-67
2023/04/12 01:46:46;;;;;;;1.30;0.90;;;;;;;20.29;36.56;100378.63;5105027;27;20036;-67
2023/04/12 01:49:12;;;;;;;2.08;1.38;;;;;;;20.29;36.41;100378.63;5109435;27;21605;-67
2023/04/12 01:51:58;;;;;;;2.00;1.15;;;;;;;20.29;36.37;100374.19;5090701;28;20478;-67
2023/04/12 01:54:27;;;;;;;1.55;0.90;;;;;;;20.25;36.52;100366.81;5104267;27;20078;-67
2023/04/12 01:56:57;;;;;;;3.07;1.10;;;;;;;20.23;36.56;100353.78;5105263;27;20090;-67
2023/04/12 01:59:27;;;;;;;2.42;1.70;;;;;;;20.23;36.53;100353.78;5115420;27;20122;-67
2023/04/12 02:01:52;;;;;;;;;;;;;;;20.19;36.41;100350.72;5104565;27;20584;-67
2023/04/12 02:04:20;;;;;;;1.20;1.10;;;;;;;20.18;36.57;100338.50;5124581;27;19920;-67
2023/04/12 02:06:46;;;;;;;2.80;1.38;;;;;;;20.17;36.57;100339.53;5091840;27;20039;-68
2023/04/12 02:09:12;;;;;;;2.33;1.52;;;;;;;20.18;36.34;100324.47;5108593;27;21764;-67
2023/04/12 02:11:37;;;;;;;2.13;1.38;;;;;;;20.16;36.58;100311.47;5092764;28;20057;-68
2023/04/12 02:14:03;;;;;;;1.33;1.08;;;;;;;20.16;36.45;100315.94;5105423;27;20575;-68
2023/04/12 02:16:28;;;;;;;2.10;1.40;;;;;;;20.17;36.50;100305.16;5094104;27;20128;-67
2023/04/12 02:18:57;;;;;;;1.77;1.40;;;;;;;20.24;36.49;100302.53;5115358;27;20032;-67
2023/04/12 02:21:25;;;;;;;2.53;1.40;;;;;;;20.21;36.46;100292.38;5090094;27;20043;-68
2023/04/12 02:23:50;;;;;;;3.63;1.60;;;;;;;20.15;36.58;100293.16;5107520;27;20507;-68
2023/04/12 02:26:16;;;;;;;1.27;1.17;;;;;;;20.16;36.57;100289.50;5097776;27;20413;-68
2023/04/12 02:28:43;;;;;;;2.03;1.35;;;;;;;20.12;36.45;100280.34;5098920;28;20048;-67
2023/04/12 02:31:12;;;;;;;2.13;1.35;;;;;;;20.19;36.55;100286.47;5097446;27;20027;-67
2023/04/12 02:33:39;;;;;;;2.42;1.20;;;;;;;20.14;36.61;100284.41;5091750;27;20107;-67
2023/04/12 02:36:10;;;;;;;3.22;1.90;;;;;;;20.13;36.55;100280.13;5111034;27;20150;-67
2023/04/12 02:38:35;;;;;;;2.60;1.10;;;;;;;20.11;36.69;100271.59;5107043;27;20035;-68
2023/04/12 02:41:03;;;;;;;2.25;1.33;;;;;;;20.12;36.67;100262.66;5127158;27;20097;-67
2023/04/12 02:43:31;;;;;;;1.90;1.65;;;;;;;20.07;36.86;100261.56;5096444;28;20035;-67
2023/04/12 02:46:00;;;;;;;2.55;1.73;;;;;;;20.07;36.75;100241.25;5106567;27;20038;-67
2023/04/12 02:48:26;;;;;;;2.90;1.50;;;;;;;20.10;36.79;100235.56;5089223;27;20039;-67
2023/04/12 02:50:52;;;;;;;3.53;1.30;;;;;;;20.07;36.77;100227.22;5089799;27;20035;-68
2023/04/12 02:53:21;;;;;;;3.65;1.30;;;;;;;20.09;36.78;100219.91;5087797;28;20154;-67
2023/04/12 02:56:00;;;;;;;3.05;1.30;;;;;;;20.08;36.82;100216.44;5085342;27;20035;-68
2023/04/12 02:58:26;;;;;;;1.70;1.40;;;;;;;20.07;36.75;100204.25;5093825;27;20035;-68
2023/04/12 03:00:52;;;;;;;1.60;1.23;;;;;;;20.04;36.80;100195.91;5098406;27;20047;-67
2023/04/12 03:03:37;;;;;;;3.60;1.52;;;;;;;20.08;36.75;100194.47;5105097;27;20508;-68
2023/04/12 03:06:18;;;;;;;2.53;1.38;;;;;;;20.08;36.81;100194.47;5093333;27;20142;-68
2023/04/12 03:08:44;;;;;;;1.23;1.05;;;;;;;20.12;36.65;100196.56;5090203;27;20037;-68
2023/04/12 03:11:10;;;;;;;2.42;1.40;;;;;;;20.05;36.81;100195.69;5091739;28;20043;-67
2023/04/12 03:13:35;;;;;;;3.05;1.42;;;;;;;20.07;36.79;100182.28;5105713;27;20040;-67
2023/04/12 03:16:20;;;;;;;2.00;1.13;;;;;;;20.08;36.69;100175.97;5105084;27;20751;-67
2023/04/12 03:18:46;;;;;;;1.15;1.05;;;;;;;20.05;36.83;100163.16;5090753;27;20259;-68
2023/04/12 03:21:12;;;;;;;2.75;1.55;;;;;;;20.09;36.75;100161.75;5094614;27;20039;-67
2023/04/12 03:23:40;;;;;;;1.73;1.30;;;;;;;20.07;36.73;100148.72;5097461;27;20172;-67
2023/04/12 03:26:15;;;;;;;2.35;1.60;;;;;;;19.98;36.88;100133.25;5093634;28;20052;-67
2023/04/12 03:28:59;;;;;;;1.85;1.20;;;;;;;20.01;36.94;100135.50;5097128;27;20048;-67
2023/04/12 03:31:26;;;;;;;1.55;0.80;;;;;;;20.00;36.75;100134.69;5127583;27;20026;-67
2023/04/12 03:33:52;;;;;;;2.47;1.33;;;;;;;19.96;36.90;100138.75;5094278;27;20050;-67
2023/04/12 03:36:22;;;;;;;1.17;0.77;;;;;;;19.98;36.96;100138.56;5084675;28;20071;-67
2023/04/12 03:38:53;;;;;;;3.08;1.15;;;;;;;20.01;36.84;100120.47;5090040;28;20063;-67
2023/04/12 03:41:22;;;;;;;1.77;1.05;;;;;;;19.96;36.94;100120.25;5100622;27;20039;-68
2023/04/12 03:43:48;;;;;;;0.98;0.88;;;;;;;19.98;36.93;100109.47;5092906;27;20028;-67
2023/04/12 03:46:16;;;;;;;1.75;1.23;;;;;;;19.97;36.91;100099.94;5092857;27;20531;-67
2023/04/12 03:48:43;;;;;;;1.25;1.10;;;;;;;19.91;37.04;100102.31;5100012;27;20036;-66
2023/04/12 03:51:12;;;;;;;2.10;1.27;;;;;;;19.96;36.94;100085.91;5095799;27;20040;-67
2023/04/12 03:53:42;;;;;;;1.67;1.05;;;;;;;19.97;36.96;100082.25;5092762;27;20745;-68
2023/04/12 03:56:12;;;;;;;;;;;;;;;20.08;36.71;100075.53;5093084;28;20039;-68
2023/04/12 03:58:37;;;;;;;1.48;1.17;;;;;;;19.94;37.01;100065.97;5109022;27;19915;-68
2023/04/12 04:01:06;;;;;;;1.77;1.10;;;;;;;19.97;36.97;100055.81;5089919;28;20126;-68
2023/04/12 04:03:33;;;;;;;1.50;1.00;;;;;;;19.94;36.94;100043.00;5092758;28;20035;-68
2023/04/12 04:06:16;;;;;;;1.50;1.13;;;;;;;19.99;36.95;100039.75;5095653;27;20039;-68
2023/04/12 04:08:43;;;;;;;1.15;1.02;;;;;;;19.97;36.98;100024.09;5097435;27;22140;-68
2023/04/12 04:11:11;;;;;;;1.35;1.20;;;;;;;19.90;37.09;100028.53;5093815;27;20134;-67
2023/04/12 04:13:40;;;;;;;1.98;1.10;;;;;;;19.90;37.06;100025.91;5091912;28;20378;-68
2023/04/12 04:16:09;;;;;;;2.40;1.17;;;;;;;19.92;37.08;100029.16;5088641;28;20046;-67
2023/04/12 04:18:36;;;;;;;2.15;1.08;;;;;;;19.88;37.14;100020.81;5089473;28;20155;-66
2023/04/12 04:21:03;;;;;;;1.58;1.23;;;;;;;19.85;37.15;100030.97;5087161;28;20051;-68
2023/04/12 04:23:38;;;;;;;3.00;1.30;;;;;;;19.88;37.11;100028.75;5090540;28;20508;-68
2023/04/12 04:26:08;;;;;;;1.13;0.95;;;;;;;19.86;37.14;100017.56;5093784;28;20028;-67
2023/04/12 04:28:36;;;;;;;1.70;1.15;;;;;;;19.84;37.21;100009.03;5085615;27;20098;-67
2023/04/12 04:31:05;;;;;;;1.08;0.80;;;;;;;19.83;37.24;100004.75;5093289;28;20036;-67
2023/04/12 04:33:32;;;;;;;2.03;0.82;;;;;;;19.86;37.21;99998.25;5095362;28;20073;-67
2023/04/12 04:36:03;;;;;;;2.13;1.20;;;;;;;19.91;37.05;100004.56;5091183;28;20070;-67
2023/04/12 04:38:31;;;;;;;1.15;0.90;;;;;;;19.85;37.22;99997.44;5107187;28;20078;-67
2023/04/12 04:41:06;;;;;;;1.50;1.20;;;;;;;19.85;37.18;99986.88;5083691;28;20044;-67
2023/04/12 04:43:53;;;;;;;1.52;1.10;;;;;;;19.86;37.12;100003.53;5106853;28;20050;-67
2023/04/12 04:46:22;;;;;;;0.98;0.85;;;;;;;19.86;37.04;99999.06;5091956;28;20932;-67
2023/04/12 04:48:50;;;;;;;2.03;1.23;;;;;;;19.84;37.21;99998.47;5093668;28;20047;-67
2023/04/12 04:51:17;;;;;;;1.90;1.10;;;;;;;19.85;37.06;99999.25;5088667;28;20039;-67
2023/04/12 04:53:43;;;;;;;1.27;1.13;;;;;;;19.80;37.29;99981.38;5090032;28;20067;-67
2023/04/12 04:56:11;;;;;;;2.13;1.17;;;;;;;19.74;37.43;99987.44;5104401;27;20028;-68
2023/04/12 04:58:37;;;;;;;1.50;1.00;;;;;;;19.81;37.36;99990.13;5090256;28;20077;-68
2023/04/12 05:01:04;;;;;;;2.00;1.30;;;;;;;19.86;37.18;99985.03;5100580;27;20047;-68
2023/04/12 05:03:32;;;;;;;2.15;1.15;;;;;;;19.85;37.26;99972.84;5090058;27;20689;-68
2023/04/12 05:06:02;;;;;;;1.50;1.20;;;;;;;19.84;37.19;99982.59;5095260;27;20085;-69
2023/04/12 05:08:29;;;;;;;3.53;1.15;;;;;;;19.83;37.19;99970.41;5088962;27;20126;-67
2023/04/12 05:10:56;;;;;;;1.58;1.05;;;;;;;19.75;37.34;99970.59;5108197;27;20481;-68
2023/04/12 05:13:25;;;;;;;1.92;1.42;;;;;;;19.77;37.34;99965.94;5093747;27;20063;-67
2023/04/12 05:15:50;;;;;;;1.92;1.05;;;;;;;19.79;37.29;99952.53;5093853;27;20205;-67
2023/04/12 05:18:19;;;;;;;1.70;1.20;;;;;;;19.77;37.39;99952.72;5092476;27;20028;-67
2023/04/12 05:20:47;;;;;;;2.92;1.02;;;;;;;19.80;37.32;99948.88;5098127;27;20051;-67
2023/04/12 05:23:13;;;;;;;2.25;1.73;;;;;;;19.77;37.39;99949.28;5090035;27;20036;-67
2023/04/12 05:25:46;;;;;;;1.63;1.02;;;;;;;19.77;37.25;99957.19;5101630;27;21084;-67
2023/04/12 05:28:14;;;;;;;1.77;1.00;;;;;;;19.75;37.36;99954.75;5103516;27;20027;-68
2023/04/12 05:30:40;;;;;;;1.33;1.05;;;;;;;19.73;37.48;99956.75;5108519;27;20035;-66
2023/04/12 05:33:07;;;;;;;2.00;1.40;;;;;;;19.79;37.25;99941.97;5098358;27;20044;-67
2023/04/12 05:35:37;;;;;;;1.98;0.75;;;;;;;19.73;37.34;99938.25;5087273;27;20482;-68
2023/04/12 05:38:02;;;;;;;1.52;1.05;;;;;;;19.77;37.34;99930.78;5097907;27;20054;-68
2023/04/12 05:40:30;;;;;;;1.23;1.00;;;;;;;19.70;37.57;99930.75;5106708;27;20049;-67
2023/04/12 05:42:56;;;;;;;1.40;1.10;;;;;;;19.67;37.56;99922.41;5101826;27;20027;-67
2023/04/12 05:45:24;;;;;;;1.55;1.05;;;;;;;19.74;37.44;99923.22;5097910;27;20154;-68
2023/04/12 05:47:49;;;;;;;1.02;0.75;;;;;;;19.76;37.36;99916.75;5104358;27;20119;-67
2023/04/12 05:50:15;;;;;;;2.78;1.20;;;;;;;19.76;37.40;99911.47;5088572;27;20027;-69
2023/04/12 05:52:42;;;;;;;2.60;1.10;;;;;;;19.75;37.35;99911.66;5103246;27;21836;-67
2023/04/12 05:55:08;;;;;;;1.33;1.23;;;;;;;19.68;37.55;99914.28;5107772;27;20040;-67
2023/04/12 05:57:38;;;;;;;1.67;0.80;;;;;;;19.71;37.52;99915.72;5093075;27;20089;-67
2023/04/12 06:00:15;;;;;;;2.53;1.15;;;;;;;19.73;37.48;99913.69;5108705;27;20032;-68
2023/04/12 06:02:43;;;;;;;1.35;1.25;;;;;;;19.75;37.33;99899.28;5091677;28;20031;-67
2023/04/12 06:05:10;;;;;;;1.23;0.88;;;;;;;19.72;37.51;99899.66;5093532;28;20043;-67
2023/04/12 06:07:38;;;;;;;1.98;1.30;;;;;;;19.69;37.56;99896.63;5107387;27;20781;-67
2023/04/12 06:10:04;;;;;;;1.77;1.00;;;;;;;19.66;37.56;99895.19;5087833;28;20027;-68
2023/04/12 06:12:31;;;;;;;2.90;1.42;;;;;;;19.52;37.45;99870.56;5089715;27;20043;-67
2023/04/12 06:14:56;;;;;;;1.35;1.20;;;;;;;19.69;37.51;99880.75;5099781;27;20046;-68
2023/04/12 06:17:22;;;;;;;1.90;1.35;;;;;;;19.67;37.56;99880.16;5085434;27;20042;-67
2023/04/12 06:19:48;;;;;;;2.45;1.50;;;;;;;19.72;37.54;99878.53;5110237;27;20039;-67
2023/04/12 06:22:14;;;;;;;1.45;0.85;;;;;;;19.71;37.42;99878.72;5094308;28;20040;-68
2023/04/12 06:24:40;;;;;;;2.25;1.30;;;;;;;19.60;37.48;99878.34;5089135;27;20130;-68
2023/04/12 06:27:08;;;;;;;2.53;1.35;;;;;;;19.68;37.63;99874.66;5084564;27;20051;-67
2023/04/12 06:29:33;;;;;;;1.55;1.20;;;;;;;19.74;37.42;99868.56;5093501;28;20074;-67
2023/04/12 06:31:59;;;;;;;1.30;1.05;;;;;;;19.75;37.40;99861.47;5105769;27;20103;-69
2023/04/12 06:34:25;;;;;;;1.90;1.45;;;;;;;19.81;37.33;99861.47;5091386;27;20056;-67
2023/04/12 06:36:56;;;;;;;2.33;1.00;;;;;;;19.81;37.30;99863.31;5092484;27;20132;-67
2023/04/12 06:39:22;;;;;;;2.38;1.25;;;;;;;19.80;37.33;99851.13;5102964;27;20032;-67
2023/04/12 06:41:49;;;;;;;1.88;1.25;;;;;;;19.75;37.47;99843.81;5105353;27;20481;-67
2023/04/12 06:44:18;;;;;;;1.73;1.45;;;;;;;19.95;37.07;99840.34;5098142;27;20068;-67
2023/04/12 06:46:43;;;;;;;1.02;0.98;;;;;;;20.45;36.32;99831.75;5106493;27;20342;-68
2023/04/12 06:49:09;;;;;;;2.28;0.95;;;;;;;21.12;34.95;99837.59;5102680;27;20055;-68
2023/04/12 06:51:35;;;;;;;1.48;0.98;;;;;;;21.38;34.59;99832.19;5089470;27;20048;-68
2023/04/12 06:54:00;;;;;;;2.30;1.27;;;;;;;21.48;34.35;99828.25;5106074;27;20043;-67
2023/04/12 06:56:26;;;;;;;2.60;1.00;;;;;;;21.50;34.51;99828.84;5097409;27;20090;-68
2023/04/12 06:58:52;;;;;;;1.50;1.08;;;;;;;21.54;34.56;99830.03;5104369;27;20074;-67
2023/04/12 07:01:17;;;;;;;1.77;1.23;;;;;;;21.50;34.63;99834.94;5107613;27;20482;-67
2023/04/12 07:03:43;;;;;;;1.48;0.95;;;;;;;21.50;34.70;99823.53;5105347;27;20104;-68
2023/04/12 07:06:09;;;;;;;1.75;1.50;;;;;;;21.42;34.55;99824.63;5105189;27;20036;-68
2023/04/12 07:08:35;;;;;;;1.48;0.98;;;;;;;21.44;34.79;99817.28;5106611;27;20063;-67
2023/04/12 07:11:02;;;;;;;2.15;1.02;;;;;;;21.41;34.65;99807.94;5108939;28;20122;-69
2023/04/12 07:13:27;;;;;;;1.40;1.13;;;;;;;21.41;34.72;99809.75;5107417;28;20040;-68
2023/04/12 07:15:53;;;;;;;3.80;1.10;;;;;;;21.37;34.79;99812.03;5102491;28;20056;-67
2023/04/12 07:18:19;;;;;;;1.58;0.77;;;;;;;21.34;35.04;99809.78;5106383;27;20509;-67
2023/04/12 07:20:51;;;;;;;1.25;0.93;;;;;;;21.27;34.95;99806.38;5102397;28;20032;-68
2023/04/12 07:23:17;;;;;;;1.52;1.08;;;;;;;21.26;35.25;99806.59;5109543;28;20053;-68
2023/04/12 07:25:42;;;;;;;2.70;1.27;;;;;;;21.17;35.17;99795.41;5112041;27;20523;-68
2023/04/12 07:28:08;;;;;;;2.72;1.35;;;;;;;21.02;35.70;99798.38;5098052;28;20051;-68
2023/04/12 07:30:33;;;;;;;1.20;0.98;;;;;;;21.09;35.34;99793.03;5103842;27;20078;-68
2023/04/12 07:32:59;;;;;;;0.73;0.70;;;;;;;20.94;35.86;99798.59;5100241;27;20056;-67
2023/04/12 07:35:26;;;;;;;1.17;0.93;;;;;;;20.85;35.93;99791.94;5103992;27;20047;-65
2023/04/12 07:37:52;;;;;;;1.52;1.00;;;;;;;20.71;36.05;99791.19;5104588;27;20054;-67
2023/04/12 07:40:18;;;;;;;1.65;0.93;;;;;;;20.69;36.44;99793.22;5092046;27;20658;-67
2023/04/12 07:42:43;;;;;;;1.55;1.13;;;;;;;20.67;36.48;99797.91;5107771;27;20054;-66
2023/04/12 07:45:09;;;;;;;1.52;0.93;;;;;;;20.73;36.11;99794.44;5108550;27;20047;-67
2023/04/12 07:47:34;;;;;;;2.20;1.10;;;;;;;20.60;36.48;99791.00;5105777;27;20043;-67
2023/04/12 07:50:00;;;;;;;2.38;1.25;;;;;;;20.48;36.48;99789.03;5101561;27;20035;-68
2023/04/12 07:52:26;;;;;;;1.58;1.10;;;;;;;20.50;36.50;99781.72;5102380;27;20381;-67
2023/04/12 07:54:51;;;;;;;1.77;1.20;;;;;;;20.64;36.38;99776.34;5102212;27;20044;-66
2023/04/12 07:57:17;;;;;;;1.88;1.00;;;;;;;20.47;36.46;99776.03;5108943;27;20031;-67
2023/04/12 07:59:42;;;;;;;1.35;0.90;;;;;;;20.48;36.59;99773.19;5106941;27;20044;-66
2023/04/12 08:02:08;;;;;;;1.40;0.95;;;;;;;20.43;36.72;99775.59;5108233;27;20050;-65
2023/04/12 08:04:33;;;;;;;3.03;1.05;;;;;;;20.41;36.75;99763.63;5104316;27;20040;-66
2023/04/12 08:06:59;;;;;;;0.88;0.82;;;;;;;20.47;36.59;99768.91;5103765;28;20108;-67
2023/04/12 08:09:24;;;;;;;1.05;0.80;;;;;;;20.40;36.78;99773.34;5103016;27;20040;-66
2023/04/12 08:11:50;;;;;;;1.73;1.13;;;;;;;20.36;36.75;99777.44;5101445;28;20035;-66
2023/04/12 08:14:16;;;;;;;0.93;0.90;;;;;;;20.31;37.03;99771.97;5106193;27;20131;-67
2023/04/12 08:16:41;;;;;;;1.65;1.05;;;;;;;20.33;37.04;99763.84;5104360;27;20051;-68
2023/04/12 08:19:07;;;;;;;2.53;0.85;;;;;;;20.27;37.08;99764.66;5106187;27;20042;-67
2023/04/12 08:21:32;;;;;;;2.17;0.85;;;;;;;20.20;37.10;99754.09;5112725;27;20031;-67
2023/04/12 08:23:58;;;;;;;1.27;0.90;;;;;;;20.36;36.99;99756.28;5095113;27;20035;-68
2023/04/12 08:26:25;;;;;;;1.02;0.90;;;;;;;20.25;37.15;99767.50;5104259;28;20055;-68
2023/04/12 08:28:51;;;;;;;0.80;0.80;;;;;;;20.23;37.10;99756.31;5101876;28;20024;-68
2023/04/12 08:31:17;;;;;;;0.95;0.60;;;;;;;20.20;37.21;99746.19;5104238;28;20485;-67
2023/04/12 08:33:42;;;;;;;0.95;0.88;;;;;;;20.21;37.20;99761.81;5113533;28;20035;-67
2023/04/12 08:36:09;;;;;;;1.17;0.90;;;;;;;20.18;37.38;99759.59;5109408;28;20497;-67
2023/04/12 08:38:36;;;;;;;2.13;1.02;;;;;;;20.20;37.19;99772.59;5103025;28;20044;-67
2023/04/12 08:41:04;;;;;;;1.40;1.13;;;;;;;20.20;37.26;99769.97;5107087;28;20429;-67
2023/04/12 08:43:32;;;;;;;1.00;0.82;;;;;;;20.16;37.18;99763.47;5112265;28;20035;-68
2023/04/12 08:45:58;;;;;;;1.90;1.10;;;;;;;20.08;37.90;99761.03;5105591;28;20055;-73
2023/04/12 08:48:24;;;;;;;1.85;1.10;;;;;;;20.04;37.72;99755.34;5107870;28;20043;-73
2023/04/12 08:50:51;;;;;;;1.67;0.98;;;;;;;20.91;36.32;99755.88;5103261;28;20035;-74
2023/04/12 08:53:16;;;;;;;0.82;0.73;;;;;;;21.48;35.04;99754.91;5101583;28;20031;-73
2023/04/12 08:55:44;;;;;;;1.75;0.95;;;;;;;21.99;34.30;99754.63;5102548;28;20539;-73
2023/04/12 08:58:13;;;;;;;1.75;0.88;;;;;;;22.30;33.90;99750.25;5102458;28;20071;-73
2023/04/12 09:00:40;;;;;;;1.58;0.80;;;;;;;22.33;34.05;99754.31;5105324;28;20038;-73
2023/04/12 09:03:05;;;;;;;5.25;1.27;;;;;;;22.29;33.84;99749.47;5104850;28;20035;-73
2023/04/12 09:05:31;;;;;;;1.00;0.77;;;;;;;22.27;33.91;99750.72;5101828;28;20044;-74
2023/04/12 09:07:57;;;;;;;0.85;0.60;;;;;;;22.19;34.26;99751.81;5106793;28;20035;-72
2023/04/12 09:10:29;;;;;;;0.80;0.70;;;;;;;22.24;34.46;99753.78;5108084;28;20047;-72
2023/04/12 09:12:55;;;;;;;2.35;0.70;;;;;;;22.14;34.20;99764.91;5102998;28;20036;-73
2023/04/12 09:15:20;;;;;;;3.53;1.27;;;;;;;22.16;34.56;99754.91;5124128;27;20047;-73
2023/04/12 09:17:48;;;;;;;0.85;0.82;;;;;;;22.08;34.78;99764.97;5107834;28;20044;-72
2023/04/12 09:20:16;;;;;;;1.25;0.88;;;;;;;21.97;35.04;99762.00;5099795;28;20074;-72
2023/04/12 09:22:44;;;;;;;1.98;0.95;;;;;;;21.98;34.72;99762.81;5110999;28;20027;-72
2023/04/12 09:25:10;;;;;;;1.15;0.93;;;;;;;21.94;34.66;99758.97;5097600;28;20035;-72
2023/04/12 09:27:49;;;;;;;0.93;0.93;;;;;;;21.88;35.24;99760.66;5112215;28;20043;-73
2023/04/12 09:30:18;;;;;;;0.63;0.60;;;;;;;21.81;35.13;99759.91;5100172;28;20043;-71
2023/04/12 09:32:44;;;;;;;2.72;0.98;;;;;;;21.69;35.32;99751.84;5103676;28;20185;-72
2023/04/12 09:35:10;;;;;;;0.82;0.73;;;;;;;21.68;35.32;99744.13;5098592;28;20048;-73
2023/04/12 09:37:36;;;;;;;1.23;0.70;;;;;;;21.68;35.21;99752.06;5098476;28;20036;-72
2023/04/12 09:40:04;;;;;;;1.00;0.93;;;;;;;21.63;35.68;99743.97;5105654;27;20118;-72
2023/04/12 09:42:32;;;;;;;2.45;0.90;;;;;;;21.63;35.36;99734.19;5106109;28;20040;-72
2023/04/12 09:45:00;;;;;;;1.17;0.90;;;;;;;21.55;35.50;99738.97;5105758;27;20377;-72
2023/04/12 09:47:39;;;;;;;1.05;0.88;;;;;;;21.51;35.42;99737.75;5105824;28;20050;-73
2023/04/12 09:50:08;;;;;;;1.00;0.88;;;;;;;21.45;35.83;99733.34;5102696;28;20028;-72
2023/04/12 09:52:40;;;;;;;1.08;0.98;;;;;;;21.49;35.43;99737.97;5108973;27;20036;-72
2023/04/12 09:55:08;;;;;;;1.58;1.08;;;;;;;21.44;35.60;99737.00;5100332;28;20039;-72
2023/04/12 09:57:42;;;;;;;1.45;1.35;;;;;;;21.41;35.62;99736.41;5099725;27;20036;-74
2023/04/12 10:00:16;;;;;;;2.00;1.17;;;;;;;21.22;36.27;99729.41;5104443;27;20036;-74
2023/04/12 10:02:46;;;;;;;1.15;0.98;;;;;;;21.28;35.84;99723.28;5106615;27;20460;-73
2023/04/12 10:05:17;;;;;;;2.42;1.15;;;;;;;21.28;35.83;99717.97;5092983;28;20051;-73
2023/04/12 10:07:44;;;;;;;1.23;0.90;;;;;;;21.40;35.95;99726.03;5105438;27;20074;-72
2023/04/12 10:10:11;;;;;;;2.88;1.08;;;;;;;21.77;35.06;99723.47;5105650;27;20060;-74
2023/04/12 10:12:41;;;;;;;1.10;1.00;;;;;;;22.08;34.84;99722.56;5115093;27;20092;-72
2023/04/12 10:15:12;;;;;;;1.08;0.73;;;;;;;22.31;34.05;99720.06;5099698;28;20032;-73
2023/04/12 10:17:45;;;;;;;1.10;0.82;;;;;;;22.36;34.16;99714.09;5107062;28;20042;-73
2023/04/12 10:20:13;;;;;;;1.08;0.90;;;;;;;22.38;34.18;99722.63;5107446;28;20031;-72
2023/04/12 10:22:42;;;;;;;1.58;1.13;;;;;;;22.29;34.23;99720.28;5102545;27;20024;-74
2023/04/12 10:25:22;;;;;;;1.55;1.15;;;;;;;22.32;34.64;99724.31;5114749;27;20040;-74
2023/04/12 10:27:48;;;;;;;1.92;1.45;;;;;;;22.34;34.62;99716.97;5109581;27;20032;-72
2023/04/12 10:30:26;;;;;;;1.15;1.05;;;;;;;22.30;34.88;99713.94;5108489;27;20094;-73
2023/04/12 10:33:03;;;;;;;1.70;1.20;;;;;;;22.30;34.54;99721.09;5116036;27;20057;-73
2023/04/12 10:35:47;;;;;;;1.35;1.10;;;;;;;22.24;34.59;99714.00;5105360;27;20027;-73
2023/04/12 10:38:12;;;;;;;1.65;1.10;;;;;;;22.21;34.57;99714.47;5098099;27;20036;-72
2023/04/12 10:41:12;;;;;;;1.20;1.10;;;;;;;22.16;34.80;99711.66;5106648;28;20038;-71
2023/04/12 10:43:38;;;;;;;1.05;0.95;;;;;;;22.15;34.89;99702.91;5102555;27;20494;-72
2023/04/12 10:46:05;;;;;;;2.97;1.48;;;;;;;22.04;35.35;99703.59;5107897;28;20509;-72
2023/04/12 10:48:35;;;;;;;0.68;0.68;;;;;;;22.01;35.02;99699.56;5103533;28;20061;-72
2023/04/12 10:51:27;;;;;;;1.13;1.02;;;;;;;22.00;35.11;99699.78;5108681;28;20414;-72
2023/04/12 10:54:06;;;;;;;1.20;1.10;;;;;;;21.94;35.43;99698.81;5092549;28;20077;-72
2023/04/12 10:56:31;;;;;;;1.00;0.90;;;;;;;21.83;35.41;99699.53;5103984;27;20161;-71
2023/04/12 10:58:59;;;;;;;1.70;0.95;;;;;;;21.80;35.70;99707.94;5107353;27;20110;-71
2023/04/12 11:01:30;;;;;;;1.55;1.15;;;;;;;21.75;35.88;99704.34;5096433;27;20024;-72
2023/04/12 11:04:20;;;;;;;1.25;1.15;;;;;;;21.74;35.61;99702.72;5106348;27;20043;-73
2023/04/12 11:07:06;;;;;;;1.40;1.30;;;;;;;21.67;35.67;99697.47;5086047;28;20019;-71
2023/04/12 11:09:41;;;;;;;1.40;1.10;;;;;;;21.49;36.08;99692.13;5106314;27;20044;-72
2023/04/12 11:12:06;;;;;;;1.42;1.10;;;;;;;21.54;36.07;99694.94;5105660;27;20428;-72
2023/04/12 11:14:34;;;;;;;2.28;1.25;;;;;;;21.50;36.18;99691.09;5101142;28;20147;-72
2023/04/12 11:17:12;;;;;;;0.85;0.75;;;;;;;21.52;35.95;99691.69;5100688;27;20036;-71
2023/04/12 11:19:42;;;;;;;2.25;1.10;;;;;;;21.37;36.32;99690.22;5102774;27;20039;-72
2023/04/12 11:22:12;;;;;;;1.17;1.05;;;;;;;21.48;36.16;99685.22;5108208;27;20066;-71
2023/04/12 11:24:46;;;;;;;1.58;1.15;;;;;;;21.35;36.52;99683.50;5109752;27;20437;-71
2023/04/12 11:27:13;;;;;;;1.17;0.98;;;;;;;21.39;36.24;99682.88;5110632;27;20088;-71
2023/04/12 11:29:39;;;;;;;2.33;1.10;;;;;;;21.40;36.37;99688.97;5104259;27;20568;-72
2023/04/12 11:32:08;;;;;;;1.33;1.20;;;;;;;21.39;36.15;99692.66;5103935;28;20082;-72
2023/04/12 11:34:35;;;;;;;1.67;1.20;;;;;;;21.23;36.45;99693.97;5100591;27;20556;-73
2023/04/12 11:37:08;;;;;;;1.92;1.20;;;;;;;21.37;36.17;99694.72;5103835;27;20108;-73
2023/04/12 11:39:44;;;;;;;1.20;1.10;;;;;;;21.47;36.04;99692.34;5092003;27;20081;-72